Time;durP1;ratioP1;P1;durP2;ratioP2;P2;SDS_P1;SDS_P2;PMS_P1;PMS_P2;Temp;Humidity;BMP_temperature;BMP_pressure;BME280_temperature;BME280_humidity;BME280_pressure;Samples;Min_cycle;Max_cycle;Signal;HPM_P1;HPM_P2
2022/05/29 00:00:13;;;;;;;4.18;2.00;;;;;;;3.98;95.81;98243.19;2576463;28;20081;-82
2022/05/29 00:01:50;;;;;;;4.40;1.73;;;;;;;4.07;95.16;98244.03;2575903;28;20050;-83
2022/05/29 00:03:06;;;;;;;4.80;2.25;;;;;;;4.09;95.04;98249.19;2576287;28;20053;-82
2022/05/29 00:04:22;;;;;;;5.35;2.05;;;;;;;4.14;94.67;98244.00;2575766;28;20500;-87
2022/05/29 00:05:39;;;;;;;1.88;1.35;;;;;;;4.12;94.66;98248.34;2575227;28;20073;-86
2022/05/29 00:06:56;;;;;;;1.98;1.55;;;;;;;4.08;95.84;98243.19;2575187;28;20132;-82
2022/05/29 00:08:14;;;;;;;2.20;1.38;;;;;;;4.08;95.93;98240.59;2575428;28;20054;-82
2022/05/29 00:09:42;;;;;;;4.55;1.98;;;;;;;4.09;94.94;98241.44;2575201;28;20050;-82
2022/05/29 00:10:59;;;;;;;3.38;1.67;;;;;;;4.07;95.15;98238.88;2575478;28;20050;-82
2022/05/29 00:12:16;;;;;;;3.42;1.80;;;;;;;4.03;95.22;98242.31;2575263;28;20421;-83
2022/05/29 00:13:32;;;;;;;2.70;1.70;;;;;;;3.98;94.92;98236.31;2575157;28;20154;-82
2022/05/29 00:14:48;;;;;;;4.80;1.85;;;;;;;3.95;94.91;98238.91;2575438;28;20065;-83
2022/05/29 00:16:03;;;;;;;4.25;2.10;;;;;;;3.92;94.92;98239.78;2575265;28;20046;-83
2022/05/29 00:17:21;;;;;;;5.57;2.00;;;;;;;3.88;93.75;98240.69;2575671;28;20382;-82
2022/05/29 00:18:38;;;;;;;3.05;1.77;;;;;;;3.82;93.46;98245.88;2575377;28;20513;-81
2022/05/29 00:19:54;;;;;;;3.17;1.75;;;;;;;3.81;94.11;98242.44;2575587;28;20512;-82
2022/05/29 00:21:09;;;;;;;4.97;2.45;;;;;;;3.72;95.10;98237.28;2575731;28;20046;-82
2022/05/29 00:22:26;;;;;;;6.15;2.25;;;;;;;3.70;94.06;98239.00;2575499;28;20543;-87
2022/05/29 00:23:43;;;;;;;3.30;1.80;;;;;;;3.64;94.04;98237.31;2569186;28;20054;-83
2022/05/29 00:24:58;;;;;;;3.40;1.92;;;;;;;3.55;95.43;98233.88;2572277;28;20054;-82
2022/05/29 00:26:14;;;;;;;4.35;2.17;;;;;;;3.51;95.39;98239.09;2575226;28;20061;-82
2022/05/29 00:27:29;;;;;;;3.45;2.17;;;;;;;3.45;95.25;98233.91;2575467;28;20055;-82
2022/05/29 00:28:46;;;;;;;3.40;1.98;;;;;;;3.29;95.62;98238.28;2575189;28;20054;-84
2022/05/29 00:30:03;;;;;;;5.95;2.25;;;;;;;3.31;95.78;98227.91;2575397;28;20050;-85
2022/05/29 00:31:18;;;;;;;5.22;2.05;;;;;;;3.33;95.58;98236.50;2575122;28;20062;-82
2022/05/29 00:32:34;;;;;;;3.92;2.28;;;;;;;3.39;95.31;98236.53;2575127;28;20511;-84
2022/05/29 00:33:50;;;;;;;5.05;1.80;;;;;;;3.45;95.16;98238.25;2575495;28;20046;-82
2022/05/29 00:35:05;;;;;;;3.95;2.00;;;;;;;3.45;95.43;98236.50;2575157;28;20050;-82
2022/05/29 00:36:21;;;;;;;5.15;1.73;;;;;;;3.45;95.78;98233.06;2574948;28;20055;-84
2022/05/29 00:37:40;;;;;;;4.78;2.30;;;;;;;3.46;95.79;98230.44;2574953;28;20543;-83
2022/05/29 00:38:55;;;;;;;2.78;1.88;;;;;;;3.44;95.53;98237.34;2575242;28;20058;-82
2022/05/29 00:40:33;;;;;;;5.18;2.28;;;;;;;3.50;95.29;98231.31;2575520;28;20046;-82
2022/05/29 00:41:48;;;;;;;3.40;1.80;;;;;;;3.50;95.18;98226.13;2564296;28;20047;-86
2022/05/29 00:43:04;;;;;;;4.65;1.80;;;;;;;3.51;94.54;98228.72;2569262;28;20050;-82
2022/05/29 00:44:28;;;;;;;2.85;1.88;;;;;;;3.49;94.18;98224.41;2575382;28;20046;-82
2022/05/29 00:45:56;;;;;;;6.50;1.85;;;;;;;3.53;93.88;98229.56;2575271;28;20051;-85
2022/05/29 00:47:18;;;;;;;3.95;2.10;;;;;;;3.50;94.10;98232.19;2574341;28;20417;-82
2022/05/29 00:48:33;;;;;;;3.17;1.77;;;;;;;3.46;94.38;98237.38;2574440;28;20068;-82
2022/05/29 00:49:50;;;;;;;2.40;1.70;;;;;;;3.38;94.27;98232.22;2575366;28;20054;-83
2022/05/29 00:51:12;;;;;;;4.68;2.08;;;;;;;3.28;94.98;98235.69;2575223;28;20099;-82
2022/05/29 00:52:29;;;;;;;4.47;1.85;;;;;;;3.24;95.75;98234.81;2575301;28;20054;-82
2022/05/29 00:53:45;;;;;;;5.03;2.30;;;;;;;3.19;96.17;98234.81;2575025;28;20058;-82
2022/05/29 00:55:09;;;;;;;4.35;2.10;;;;;;;3.17;95.40;98228.78;2575043;28;20136;-85
2022/05/29 00:56:25;;;;;;;3.38;1.88;;;;;;;3.23;95.80;98227.91;2575245;28;20321;-82
2022/05/29 00:57:45;;;;;;;4.78;2.00;;;;;;;3.27;95.65;98228.78;2574999;28;20057;-83
2022/05/29 00:59:02;;;;;;;3.38;2.00;;;;;;;3.24;96.13;98227.06;2575316;28;20104;-82
2022/05/29 01:00:25;;;;;;;3.60;1.63;;;;;;;3.20;96.00;98226.19;2575750;28;20050;-86
2022/05/29 01:01:41;;;;;;;4.95;2.55;;;;;;;3.16;96.66;98228.81;2577091;28;20109;-84
2022/05/29 01:03:00;;;;;;;3.15;1.70;;;;;;;3.07;96.47;98227.94;2576979;28;20497;-83
2022/05/29 01:04:16;;;;;;;3.03;2.05;;;;;;;3.11;96.63;98226.22;2577078;28;20046;-83
2022/05/29 01:05:34;;;;;;;3.30;2.08;;;;;;;3.21;96.08;98220.19;2576833;28;20564;-85
2022/05/29 01:06:49;;;;;;;3.72;2.03;;;;;;;3.31;96.13;98226.19;2576854;28;20049;-82
2022/05/29 01:08:28;;;;;;;5.57;2.22;;;;;;;3.42;97.04;98217.50;2577086;28;20461;-85
2022/05/29 01:09:47;;;;;;;4.07;1.80;;;;;;;3.32;97.36;98214.97;2577071;28;20088;-82
2022/05/29 01:11:12;;;;;;;5.63;2.10;;;;;;;3.25;97.60;98214.13;2576878;28;20053;-83
2022/05/29 01:13:10;;;;;;;3.40;2.05;;;;;;;3.19;98.52;98211.53;2576670;28;20050;-83
2022/05/29 01:15:04;;;;;;;2.83;1.70;;;;;;;3.14;99.61;98215.88;2545427;29;20048;-82
2022/05/29 01:17:04;;;;;;;4.40;2.05;;;;;;;3.27;99.39;98208.09;2551388;28;20769;-81
2022/05/29 01:19:18;;;;;;;7.13;2.08;;;;;;;3.28;100.00;98207.22;2557440;28;20073;-82
2022/05/29 01:20:58;;;;;;;5.00;1.90;;;;;;;3.37;100.00;98210.63;2576061;28;20092;-81
2022/05/29 01:22:26;;;;;;;6.00;2.40;;;;;;;3.39;99.66;98206.31;2576793;28;20054;-80
2022/05/29 01:23:44;;;;;;;3.42;1.92;;;;;;;3.31;99.40;98207.19;2577182;28;20046;-83
2022/05/29 01:25:28;;;;;;;3.97;2.30;;;;;;;3.28;99.41;98207.22;2576817;28;20593;-82
2022/05/29 01:27:26;;;;;;;2.72;1.95;;;;;;;3.28;99.14;98208.06;2576759;28;20481;-84
2022/05/29 01:28:55;;;;;;;4.53;2.25;;;;;;;3.01;99.53;98207.28;2577067;28;20473;-82
2022/05/29 01:30:21;;;;;;;5.90;2.28;;;;;;;3.02;99.04;98209.00;2576773;28;21004;-84
2022/05/29 01:31:40;;;;;;;4.03;2.33;;;;;;;2.99;99.24;98210.72;2576507;28;20058;-82
2022/05/29 01:32:58;;;;;;;2.70;2.00;;;;;;;2.97;99.28;98203.81;2576861;28;20536;-82
2022/05/29 01:34:35;;;;;;;4.32;2.35;;;;;;;2.97;99.24;98214.16;2576363;28;20054;-81
2022/05/29 01:36:01;;;;;;;5.63;2.25;;;;;;;2.98;99.85;98215.00;2576653;28;20086;-81
2022/05/29 01:37:21;;;;;;;5.00;2.80;;;;;;;2.96;100.00;98207.28;2576798;28;20580;-82
2022/05/29 01:38:46;;;;;;;5.65;2.63;;;;;;;2.96;100.00;98207.28;2576531;28;20064;-82
2022/05/29 01:40:05;;;;;;;3.00;1.90;;;;;;;2.93;100.00;98209.88;2576783;28;20046;-81
2022/05/29 01:41:33;;;;;;;6.38;2.28;;;;;;;2.84;99.76;98202.13;2576879;28;20133;-81
2022/05/29 01:43:01;;;;;;;3.85;2.30;;;;;;;2.82;99.41;98203.84;2576652;28;20401;-83
2022/05/29 01:44:39;;;;;;;4.22;2.10;;;;;;;2.76;99.58;98203.81;2576555;28;20230;-81
2022/05/29 01:45:57;;;;;;;3.35;1.98;;;;;;;2.75;99.71;98205.56;2575197;28;20112;-81
2022/05/29 01:47:23;;;;;;;5.20;2.03;;;;;;;2.75;99.51;98208.16;2576257;28;20319;-82
2022/05/29 01:49:03;;;;;;;5.30;2.40;;;;;;;2.74;99.20;98214.19;2576517;28;20046;-81
2022/05/29 01:50:43;;;;;;;3.17;1.80;;;;;;;2.77;99.09;98208.13;2576797;28;20112;-88
2022/05/29 01:52:32;;;;;;;5.82;2.35;;;;;;;2.79;98.83;98209.88;2577045;28;20058;-82
2022/05/29 01:53:54;;;;;;;4.97;2.13;;;;;;;2.77;98.58;98209.00;2576637;28;20062;-82
2022/05/29 01:55:16;;;;;;;4.32;1.92;;;;;;;2.76;98.17;98203.81;2576698;28;20057;-83
2022/05/29 01:56:34;;;;;;;;;;;;;;;2.69;98.25;98202.97;2577082;28;20050;-82
2022/05/29 01:57:52;;;;;;;3.65;1.70;;;;;;;2.66;98.48;98203.84;2576523;28;19964;-82
2022/05/29 01:59:14;;;;;;;2.95;1.80;;;;;;;2.65;98.08;98204.72;2576824;28;20058;-81
2022/05/29 02:00:31;;;;;;;4.22;2.25;;;;;;;2.60;98.12;98201.25;2576483;28;20046;-82
2022/05/29 02:01:54;;;;;;;5.35;2.15;;;;;;;2.57;97.89;98195.22;2576440;28;20042;-82
2022/05/29 02:03:16;;;;;;;4.88;1.90;;;;;;;2.50;97.75;98197.81;2576500;28;20042;-83
2022/05/29 02:04:34;;;;;;;2.38;1.67;;;;;;;2.46;97.70;98195.22;2576646;28;20056;-82
2022/05/29 02:06:00;;;;;;;3.28;2.28;;;;;;;2.44;97.34;98194.34;2576154;28;20069;-82
2022/05/29 02:09:02;;;;;;;3.95;1.83;;;;;;;2.49;97.76;98188.34;2576265;28;20058;-82
2022/05/29 02:10:21;;;;;;;3.72;2.20;;;;;;;2.51;99.28;98191.78;2576752;28;20050;-82
2022/05/29 02:11:37;;;;;;;3.67;1.98;;;;;;;2.51;99.28;98194.34;2576355;28;20058;-82
2022/05/29 02:13:00;;;;;;;3.85;2.30;;;;;;;2.53;98.76;98191.78;2576461;28;20448;-81
2022/05/29 02:14:24;;;;;;;4.45;2.25;;;;;;;2.49;98.48;98190.03;2576769;28;20058;-84
2022/05/29 02:15:54;;;;;;;3.33;2.03;;;;;;;2.45;98.68;98191.78;2576479;28;20047;-81
2022/05/29 02:17:16;;;;;;;4.10;2.05;;;;;;;2.21;98.97;98193.47;2576473;28;20564;-84
2022/05/29 02:18:44;;;;;;;2.93;2.20;;;;;;;2.27;99.77;98197.78;2576380;28;20571;-85
2022/05/29 02:20:07;;;;;;;2.50;1.83;;;;;;;2.35;99.44;98190.88;2576284;28;20885;-82
2022/05/29 02:21:34;;;;;;;4.22;2.20;;;;;;;2.45;99.75;98186.63;2576626;28;20244;-82
2022/05/29 02:22:56;;;;;;;4.07;1.90;;;;;;;2.50;100.00;98189.19;2576278;28;20054;-81
2022/05/29 02:24:16;;;;;;;5.38;2.20;;;;;;;2.56;100.00;98184.03;2576513;28;20745;-81
2022/05/29 02:25:35;;;;;;;4.53;2.40;;;;;;;2.56;99.73;98194.38;2576516;28;20085;-81
2022/05/29 02:27:06;;;;;;;6.20;2.25;;;;;;;2.62;99.61;98191.75;2576329;28;20050;-81
2022/05/29 02:28:30;;;;;;;5.82;2.22;;;;;;;2.63;100.00;98177.97;2576181;28;20096;-81
2022/05/29 02:29:46;;;;;;;4.65;2.00;;;;;;;2.58;99.73;98182.31;2576394;28;20050;-82
2022/05/29 02:31:12;;;;;;;3.60;2.22;;;;;;;2.54;99.73;98178.84;2576139;28;20440;-82
2022/05/29 02:32:48;;;;;;;5.70;2.20;;;;;;;2.60;99.75;98171.97;2576447;28;20050;-81
2022/05/29 02:34:16;;;;;;;4.93;2.22;;;;;;;2.63;99.97;98179.72;2576303;28;20049;-82
2022/05/29 02:36:22;;;;;;;4.00;2.20;;;;;;;2.67;100.00;98174.56;2575883;28;20364;-82
2022/05/29 02:37:54;;;;;;;3.22;2.17;;;;;;;2.89;100.00;98177.09;2576475;28;20061;-82
2022/05/29 02:39:22;;;;;;;2.85;1.95;;;;;;;2.92;100.00;98171.91;2576490;28;20058;-82
2022/05/29 02:41:00;;;;;;;3.70;2.13;;;;;;;2.88;100.00;98175.38;2576320;28;20460;-83
2022/05/29 02:42:22;;;;;;;4.35;2.30;;;;;;;2.94;100.00;98172.81;2576314;28;20074;-83
2022/05/29 02:43:52;;;;;;;;;;;;;;;2.95;100.00;98176.22;2576791;28;20094;-82
2022/05/29 02:45:31;;;;;;;4.03;1.90;;;;;;;2.93;100.00;98173.66;2576335;28;20382;-87
2022/05/29 02:46:53;;;;;;;5.40;2.25;;;;;;;3.11;100.00;98172.75;2576582;28;20146;-88
2022/05/29 02:48:35;;;;;;;6.30;2.58;;;;;;;3.01;100.00;98175.38;2576513;28;20109;-82
2022/05/29 02:50:11;;;;;;;3.50;2.30;;;;;;;3.02;100.00;98172.78;2576546;28;20062;-83
2022/05/29 02:51:43;;;;;;;4.93;2.30;;;;;;;2.99;100.00;98167.59;2577803;28;20429;-81
2022/05/29 02:53:02;;;;;;;2.70;2.00;;;;;;;2.89;100.00;98160.75;2577376;28;20082;-85
2022/05/29 02:54:27;;;;;;;4.50;2.65;;;;;;;2.84;100.00;98163.34;2577920;28;20054;-82
2022/05/29 02:55:44;;;;;;;5.30;2.22;;;;;;;2.83;100.00;98159.88;2575924;28;20054;-81
2022/05/29 02:57:01;;;;;;;5.30;2.47;;;;;;;2.81;100.00;98164.19;2575920;28;20050;-81
2022/05/29 02:58:27;;;;;;;4.07;2.60;;;;;;;2.81;100.00;98168.50;2570352;28;20046;-84
2022/05/29 02:59:48;;;;;;;6.20;2.47;;;;;;;2.81;100.00;98161.59;2572955;28;20050;-84
2022/05/29 03:01:19;;;;;;;7.97;2.58;;;;;;;2.78;100.00;98160.72;2576223;28;20061;-83
2022/05/29 03:03:04;;;;;;;4.82;2.10;;;;;;;2.74;100.00;98161.59;2576058;28;20121;-84
2022/05/29 03:04:34;;;;;;;2.70;2.10;;;;;;;2.71;100.00;98162.47;2556149;28;20064;-81
2022/05/29 03:06:08;;;;;;;4.53;1.77;;;;;;;2.63;100.00;98157.31;2575785;28;20070;-84
2022/05/29 03:08:01;;;;;;;3.55;2.00;;;;;;;2.46;100.00;98159.03;2575880;28;20054;-82
2022/05/29 03:09:25;;;;;;;3.00;2.30;;;;;;;2.38;100.00;98157.34;2575967;28;20068;-81
2022/05/29 03:10:52;;;;;;;3.85;2.45;;;;;;;2.43;100.00;98159.03;2565079;28;20341;-81
2022/05/29 03:12:28;;;;;;;2.92;2.30;;;;;;;2.50;100.00;98153.88;2571272;28;20062;-81
2022/05/29 03:13:51;;;;;;;4.55;1.92;;;;;;;2.50;100.00;98150.41;2544891;28;20071;-87
2022/05/29 03:15:25;;;;;;;4.45;2.15;;;;;;;2.41;100.00;98159.03;2576056;28;20050;-83
2022/05/29 03:17:02;;;;;;;4.05;1.90;;;;;;;2.30;100.00;98153.88;2575672;28;20910;-82
2022/05/29 03:19:02;;;;;;;7.18;2.20;;;;;;;2.29;100.00;98153.84;2575805;28;20062;-83
2022/05/29 03:21:13;;;;;;;4.18;2.30;;;;;;;2.33;100.00;98150.44;2544394;29;20052;-82
2022/05/29 03:22:47;;;;;;;3.80;2.10;;;;;;;2.44;100.00;98145.25;2544142;28;20130;-81
2022/05/29 03:24:23;;;;;;;4.82;2.28;;;;;;;2.53;100.00;98143.53;2544004;29;20134;-81
2022/05/29 03:25:44;;;;;;;5.68;2.35;;;;;;;2.65;100.00;98145.25;2557588;28;20086;-80
2022/05/29 03:27:08;;;;;;;4.70;2.28;;;;;;;2.72;100.00;98153.84;2576078;28;20046;-81
2022/05/29 03:28:33;;;;;;;10.90;2.17;;;;;;;2.79;100.00;98146.94;2575782;28;20050;-81
2022/05/29 03:29:57;;;;;;;4.63;2.30;;;;;;;2.87;100.00;98152.13;2575691;28;20085;-81
2022/05/29 03:31:19;;;;;;;4.28;2.10;;;;;;;2.95;100.00;98145.19;2575502;28;20081;-81
2022/05/29 03:32:35;;;;;;;4.40;2.50;;;;;;;2.99;100.00;98139.16;2575787;28;20408;-81
2022/05/29 03:33:51;;;;;;;4.10;2.28;;;;;;;3.04;100.00;98146.91;2575839;28;20477;-82
2022/05/29 03:35:21;;;;;;;5.90;2.38;;;;;;;3.07;100.00;98145.19;2575652;28;20097;-81
2022/05/29 03:36:45;;;;;;;4.90;2.58;;;;;;;3.11;100.00;98139.13;2575518;28;20421;-87
2022/05/29 03:38:03;;;;;;;4.32;2.42;;;;;;;3.16;100.00;98139.13;2575294;28;20537;-86
2022/05/29 03:39:18;;;;;;;4.43;2.47;;;;;;;3.17;100.00;98137.41;2575123;28;20058;-82
2022/05/29 03:40:34;;;;;;;3.72;2.33;;;;;;;3.18;100.00;98142.56;2575468;28;20779;-83
2022/05/29 03:41:52;;;;;;;6.03;2.88;;;;;;;3.19;100.00;98141.69;2575764;28;20489;-81
2022/05/29 03:43:08;;;;;;;4.13;2.60;;;;;;;3.24;100.00;98145.13;2575758;28;20133;-83
2022/05/29 03:44:24;;;;;;;6.22;2.95;;;;;;;3.25;100.00;98140.81;2575729;28;20053;-86
2022/05/29 03:45:39;;;;;;;4.50;2.50;;;;;;;3.27;100.00;98146.84;2575350;28;20051;-82
2022/05/29 03:46:56;;;;;;;4.63;2.50;;;;;;;3.22;100.00;98133.94;2576031;28;20074;-80
2022/05/29 03:48:11;;;;;;;4.25;2.45;;;;;;;3.24;100.00;98133.91;2574970;28;20165;-83
2022/05/29 03:49:26;;;;;;;5.05;2.40;;;;;;;3.20;100.00;98138.22;2564831;28;20062;-84
2022/05/29 03:50:42;;;;;;;4.90;2.55;;;;;;;3.18;100.00;98133.94;2568899;28;20050;-83
2022/05/29 03:51:58;;;;;;;9.93;2.35;;;;;;;3.16;100.00;98138.28;2575203;28;20050;-87
2022/05/29 03:53:13;;;;;;;4.97;2.17;;;;;;;3.08;100.00;98133.97;2575678;28;20046;-84
2022/05/29 03:54:29;;;;;;;3.63;2.28;;;;;;;3.14;100.00;98134.81;2575326;28;20066;-83
2022/05/29 03:55:45;;;;;;;3.95;1.98;;;;;;;3.32;100.00;98134.75;2575521;28;20054;-82
2022/05/29 03:57:00;;;;;;;2.50;2.13;;;;;;;3.37;100.00;98133.00;2575341;28;20404;-82
2022/05/29 03:58:16;;;;;;;4.25;2.30;;;;;;;3.39;100.00;98133.00;2575419;28;20062;-81
2022/05/29 03:59:31;;;;;;;4.85;2.13;;;;;;;3.29;100.00;98134.78;2575445;28;20560;-81
2022/05/29 04:00:47;;;;;;;4.60;2.13;;;;;;;3.24;100.00;98132.19;2570554;28;20054;-86
2022/05/29 04:02:03;;;;;;;4.03;1.92;;;;;;;3.26;100.00;98129.59;2572672;28;20046;-82
2022/05/29 04:03:19;;;;;;;4.25;1.90;;;;;;;3.22;100.00;98128.75;2575453;28;20051;-82
2022/05/29 04:04:35;;;;;;;3.55;2.22;;;;;;;3.18;100.00;98127.03;2575516;28;20057;-81
2022/05/29 04:05:51;;;;;;;4.63;2.03;;;;;;;3.10;100.00;98123.63;2575248;28;20085;-82
2022/05/29 04:07:07;;;;;;;4.75;2.60;;;;;;;3.02;100.00;98122.78;2575682;28;20086;-82
2022/05/29 04:13:05;;;;;;;3.92;2.63;;;;;;;3.21;100.00;98121.88;2575596;28;20414;-82
2022/05/29 04:14:21;;;;;;;4.07;2.50;;;;;;;3.31;100.00;98119.22;2575558;28;20057;-82
2022/05/29 04:15:41;;;;;;;4.38;2.55;;;;;;;3.34;100.00;98122.66;2575468;28;20047;-82
2022/05/29 04:16:57;;;;;;;4.18;2.38;;;;;;;3.35;100.00;98124.38;2575458;28;20054;-82
2022/05/29 04:18:15;;;;;;;6.43;2.63;;;;;;;3.33;100.00;98125.25;2575003;28;20527;-83
2022/05/29 04:19:31;;;;;;;3.65;2.35;;;;;;;3.24;100.00;98118.38;2575137;28;20141;-81
2022/05/29 04:20:50;;;;;;;5.97;2.47;;;;;;;3.36;100.00;98114.91;2575478;28;20061;-83
2022/05/29 04:22:14;;;;;;;6.28;2.80;;;;;;;3.41;100.00;98113.16;2575295;28;20054;-82
2022/05/29 04:23:30;;;;;;;3.72;2.30;;;;;;;3.42;100.00;98121.75;2575559;28;20563;-83
2022/05/29 04:24:45;;;;;;;7.18;2.50;;;;;;;3.38;100.00;98123.53;2575353;28;20057;-82
2022/05/29 04:26:01;;;;;;;6.43;2.67;;;;;;;3.43;100.00;98111.41;2575328;28;20061;-82
2022/05/29 04:27:16;;;;;;;5.60;2.75;;;;;;;3.44;100.00;98113.13;2575350;28;20677;-83
2022/05/29 04:28:32;;;;;;;5.50;2.92;;;;;;;3.47;100.00;98112.25;2564706;28;20418;-82
2022/05/29 04:29:48;;;;;;;4.28;2.35;;;;;;;3.53;100.00;98112.22;2568801;28;20051;-82
2022/05/29 04:31:03;;;;;;;7.18;2.88;;;;;;;3.60;100.00;98105.28;2575222;28;20592;-82
2022/05/29 04:33:53;;;;;;;5.03;2.50;;;;;;;3.76;100.00;98103.47;2575490;28;20059;-82
2022/05/29 04:35:09;;;;;;;6.22;2.67;;;;;;;3.76;100.00;98106.91;2577370;28;20791;-87
2022/05/29 04:36:25;;;;;;;4.65;2.50;;;;;;;3.73;100.00;98103.50;2577295;28;20057;-86
2022/05/29 04:37:40;;;;;;;4.65;2.80;;;;;;;3.68;100.00;98106.97;2566183;28;20448;-83
2022/05/29 04:38:57;;;;;;;5.20;2.67;;;;;;;3.76;100.00;98103.47;2570640;28;20065;-83
2022/05/29 04:40:12;;;;;;;4.45;2.58;;;;;;;3.80;100.00;98100.00;2577287;28;20523;-82
2022/05/29 04:41:28;;;;;;;3.47;2.47;;;;;;;3.86;100.00;98099.09;2577361;28;20070;-83
2022/05/29 04:42:43;;;;;;;6.78;2.85;;;;;;;3.91;100.00;98099.91;2577068;28;20042;-83
2022/05/29 04:43:59;;;;;;;4.72;2.50;;;;;;;3.99;100.00;98092.97;2577112;28;20058;-83
2022/05/29 04:45:15;;;;;;;4.22;2.63;;;;;;;3.98;100.00;98092.97;2577230;28;20050;-84
2022/05/29 04:46:30;;;;;;;5.75;2.90;;;;;;;4.00;100.00;98096.44;2577298;28;20077;-83
2022/05/29 04:47:46;;;;;;;5.55;2.63;;;;;;;4.03;100.00;98094.66;2577173;28;20054;-83
2022/05/29 04:49:02;;;;;;;4.82;2.80;;;;;;;4.03;100.00;98093.81;2577169;28;20376;-88
2022/05/29 04:50:19;;;;;;;5.03;2.65;;;;;;;4.11;100.00;98104.97;2577329;28;20091;-83
2022/05/29 04:51:34;;;;;;;7.30;3.33;;;;;;;4.23;100.00;98091.91;2577075;28;20047;-84
2022/05/29 04:52:53;;;;;;;5.10;2.90;;;;;;;4.32;100.00;98092.72;2577416;28;20096;-87
2022/05/29 04:54:09;;;;;;;7.15;2.88;;;;;;;4.21;100.00;98090.22;2577340;28;20060;-83
2022/05/29 04:55:24;;;;;;;4.95;2.78;;;;;;;4.30;100.00;98087.53;2577000;28;20054;-84
2022/05/29 04:56:40;;;;;;;4.03;2.90;;;;;;;4.20;100.00;98093.69;2576861;28;20046;-85
2022/05/29 04:57:56;;;;;;;6.03;3.00;;;;;;;4.37;100.00;98091.81;2576971;28;20061;-84
2022/05/29 04:59:11;;;;;;;4.28;2.63;;;;;;;4.21;100.00;98098.84;2576948;28;20062;-83
2022/05/29 05:00:27;;;;;;;4.05;2.55;;;;;;;4.25;100.00;98094.50;2577071;28;20054;-83
2022/05/29 05:01:43;;;;;;;4.35;2.55;;;;;;;4.29;100.00;98097.94;2577131;28;20125;-83
2022/05/29 05:02:59;;;;;;;3.78;2.90;;;;;;;4.38;100.00;98097.84;2576953;28;20148;-87
2022/05/29 05:04:14;;;;;;;6.32;3.17;;;;;;;4.50;100.00;98102.06;2576784;28;20148;-84
2022/05/29 05:05:30;;;;;;;7.63;3.35;;;;;;;4.53;100.00;98092.50;2576264;28;20053;-86
2022/05/29 05:06:45;;;;;;;4.22;2.92;;;;;;;4.67;100.00;98101.91;2577003;28;20112;-84
2022/05/29 05:08:01;;;;;;;4.80;2.40;;;;;;;4.68;100.00;98095.88;2577061;28;20186;-84
2022/05/29 05:09:17;;;;;;;5.75;2.83;;;;;;;4.79;100.00;98091.41;2576804;28;20077;-84
2022/05/29 05:10:32;;;;;;;4.47;2.50;;;;;;;4.94;98.60;98093.00;2576989;28;20112;-84
2022/05/29 05:11:51;;;;;;;3.22;2.20;;;;;;;5.11;98.98;98097.13;2577135;28;20050;-84
2022/05/29 05:13:08;;;;;;;4.00;2.75;;;;;;;5.26;99.74;98097.81;2577030;28;20054;-84
2022/05/29 05:14:25;;;;;;;4.70;2.92;;;;;;;5.37;99.75;98086.41;2576665;28;20668;-84
2022/05/29 05:15:41;;;;;;;6.07;2.75;;;;;;;5.42;99.91;98095.91;2577059;28;20073;-85
2022/05/29 05:16:57;;;;;;;5.63;3.05;;;;;;;5.46;100.00;98089.78;2576768;28;20078;-84
2022/05/29 05:18:13;;;;;;;5.88;3.10;;;;;;;5.45;100.00;98094.13;2576739;28;20050;-83
2022/05/29 05:19:29;;;;;;;5.43;2.90;;;;;;;5.53;100.00;98095.75;2576904;28;20493;-85
2022/05/29 05:20:44;;;;;;;5.40;2.67;;;;;;;5.62;98.65;98093.03;2576996;28;20046;-85
2022/05/29 05:22:02;;;;;;;4.57;2.55;;;;;;;5.74;99.01;98095.47;2576719;28;20054;-84
2022/05/29 05:23:17;;;;;;;3.72;2.63;;;;;;;5.91;98.03;98089.19;2576773;28;20050;-87
2022/05/29 05:24:34;;;;;;;4.75;2.47;;;;;;;6.11;95.83;98082.84;2574863;28;20465;-85
2022/05/29 05:25:49;;;;;;;5.18;2.88;;;;;;;6.16;95.58;98087.09;2576817;28;20057;-84
2022/05/29 05:27:06;;;;;;;6.45;2.72;;;;;;;6.27;95.91;98086.06;2576790;28;20254;-84
2022/05/29 05:28:22;;;;;;;4.25;2.50;;;;;;;6.44;96.06;98085.78;2576734;28;20046;-84
2022/05/29 05:29:38;;;;;;;5.18;2.70;;;;;;;6.57;95.71;98084.69;2576986;28;20116;-83
2022/05/29 05:30:53;;;;;;;5.15;2.42;;;;;;;6.69;94.29;98086.19;2576920;28;20047;-83
2022/05/29 05:32:09;;;;;;;8.82;3.05;;;;;;;6.78;95.65;98085.19;2576931;28;20054;-82
2022/05/29 05:33:25;;;;;;;4.60;2.85;;;;;;;6.87;93.49;98087.63;2576947;28;20167;-82
2022/05/29 05:34:41;;;;;;;4.38;2.35;;;;;;;6.93;93.85;98084.03;2576769;28;20054;-83
2022/05/29 05:35:57;;;;;;;5.32;2.13;;;;;;;6.99;93.81;98091.72;2576616;28;20050;-82
2022/05/29 05:37:13;;;;;;;6.07;2.60;;;;;;;7.02;93.86;98088.22;2576952;28;20630;-83
2022/05/29 05:38:31;;;;;;;4.13;2.38;;;;;;;7.07;93.59;98087.22;2576963;28;20042;-81
2022/05/29 05:39:46;;;;;;;6.05;2.58;;;;;;;7.15;93.80;98086.22;2576950;28;20512;-83
2022/05/29 05:41:02;;;;;;;4.60;2.33;;;;;;;7.21;92.85;98094.75;2577038;28;20064;-82
2022/05/29 05:42:17;;;;;;;3.40;2.30;;;;;;;7.23;90.69;98091.25;2577342;28;20054;-82
2022/05/29 05:43:33;;;;;;;5.00;2.63;;;;;;;7.26;91.82;98088.59;2578379;28;20053;-82
2022/05/29 05:44:49;;;;;;;4.68;2.30;;;;;;;7.30;91.06;98091.09;2577780;28;20455;-83
2022/05/29 05:46:09;;;;;;;6.30;2.60;;;;;;;7.37;90.62;98089.22;2577785;28;20051;-83
2022/05/29 05:47:24;;;;;;;4.22;2.72;;;;;;;7.39;90.12;98084.00;2576781;28;20061;-82
2022/05/29 05:48:40;;;;;;;4.90;2.50;;;;;;;7.38;89.53;98079.69;2576955;28;20061;-82
2022/05/29 05:49:56;;;;;;;4.80;2.92;;;;;;;7.42;90.07;98087.41;2576665;28;20108;-82
2022/05/29 05:51:13;;;;;;;2.92;2.33;;;;;;;7.51;89.75;98081.16;2576535;28;20054;-83
2022/05/29 05:52:28;;;;;;;6.07;2.70;;;;;;;7.52;90.03;98081.97;2576387;28;20055;-84
2022/05/29 05:53:44;;;;;;;5.93;2.85;;;;;;;7.52;88.29;98082.84;2576571;28;20054;-83
2022/05/29 05:54:59;;;;;;;5.10;2.75;;;;;;;7.56;88.78;98081.06;2576378;28;20054;-83
2022/05/29 05:56:17;;;;;;;3.92;2.63;;;;;;;7.63;88.88;98085.22;2576439;28;20046;-81
2022/05/29 05:57:32;;;;;;;4.35;2.70;;;;;;;7.77;88.39;98083.16;2576433;28;20054;-81
2022/05/29 05:58:48;;;;;;;4.25;2.40;;;;;;;7.82;87.18;98090.88;2576445;28;20050;-86
2022/05/29 06:00:09;;;;;;;6.38;2.80;;;;;;;7.94;87.66;98092.34;2576468;28;20078;-82
2022/05/29 06:01:24;;;;;;;6.55;2.50;;;;;;;8.01;86.91;98091.31;2576509;28;20133;-82
2022/05/29 06:02:41;;;;;;;5.68;2.78;;;;;;;8.15;88.40;98087.53;2576310;28;20081;-81
2022/05/29 06:03:57;;;;;;;3.90;3.15;;;;;;;8.28;85.88;98085.47;2576444;28;20038;-82
2022/05/29 06:05:15;;;;;;;4.57;2.42;;;;;;;8.25;84.52;98083.81;2576425;28;20058;-81
2022/05/29 06:06:30;;;;;;;6.22;3.10;;;;;;;8.33;85.46;98092.28;2565436;28;20521;-83
2022/05/29 06:07:46;;;;;;;7.50;3.17;;;;;;;8.29;85.62;98085.44;2569745;28;20054;-82
2022/05/29 06:09:01;;;;;;;7.32;3.45;;;;;;;8.31;86.75;98088.00;2565924;28;20145;-82
2022/05/29 06:10:18;;;;;;;6.63;3.70;;;;;;;8.39;84.99;98087.84;2569874;28;20496;-86
2022/05/29 06:11:39;;;;;;;6.47;3.15;;;;;;;8.48;84.72;98079.75;2576323;28;20964;-82
2022/05/29 06:12:56;;;;;;;6.65;3.65;;;;;;;8.58;85.56;98086.50;2576431;28;20049;-85
2022/05/29 06:14:12;;;;;;;10.65;3.75;;;;;;;8.57;85.65;98081.31;2576263;28;20050;-82
2022/05/29 06:15:27;;;;;;;9.35;3.58;;;;;;;8.52;84.64;98080.59;2576313;28;20069;-81
2022/05/29 06:16:43;;;;;;;6.70;3.47;;;;;;;8.53;84.13;98082.28;2576370;28;20444;-82
2022/05/29 06:17:59;;;;;;;6.53;3.28;;;;;;;8.59;84.02;98079.50;2576142;28;20054;-82
2022/05/29 06:19:14;;;;;;;5.85;3.00;;;;;;;8.62;83.69;98076.84;2575172;28;20090;-83
2022/05/29 06:20:30;;;;;;;5.63;3.58;;;;;;;8.77;82.95;98072.97;2575786;28;20050;-82
2022/05/29 06:21:46;;;;;;;5.75;3.10;;;;;;;8.82;82.33;98071.09;2575774;28;20856;-88
2022/05/29 06:23:01;;;;;;;5.75;3.33;;;;;;;8.90;82.56;98074.34;2575947;28;20428;-84
2022/05/29 06:24:17;;;;;;;8.77;3.53;;;;;;;8.97;84.45;98076.81;2576269;28;20046;-82
2022/05/29 06:25:33;;;;;;;7.28;3.58;;;;;;;8.93;82.73;98067.31;2576407;28;20047;-82
2022/05/29 06:26:48;;;;;;;6.10;3.38;;;;;;;9.06;82.48;98073.91;2576022;28;20042;-81
2022/05/29 06:28:04;;;;;;;4.90;2.90;;;;;;;9.06;83.23;98078.31;2576183;28;20050;-82
2022/05/29 06:29:20;;;;;;;5.55;3.05;;;;;;;8.99;81.72;98075.00;2575975;28;20054;-83
2022/05/29 06:30:36;;;;;;;5.50;3.10;;;;;;;9.09;81.87;98073.88;2565059;28;20133;-83
2022/05/29 06:31:53;;;;;;;6.05;3.28;;;;;;;9.15;82.80;98067.59;2569867;28;20461;-82
2022/05/29 06:33:09;;;;;;;6.38;2.65;;;;;;;9.23;82.57;98070.84;2575850;28;20057;-83